createdAt,value
2023-02-11T00:04:14.252Z,28.65
2023-02-11T00:09:15.544Z,28.63
2023-02-11T00:14:16.860Z,28.83
2023-02-11T00:19:18.222Z,29.23
2023-02-11T00:24:19.605Z,30.20
2023-02-11T00:29:20.968Z,30.05
2023-02-11T00:34:22.318Z,29.52
2023-02-11T00:39:23.682Z,30.38
2023-02-11T00:44:26.054Z,27.98
2023-02-11T00:49:27.421Z,28.60
2023-02-11T00:54:30.044Z,30.00
2023-02-11T00:59:31.495Z,29.20
2023-02-11T01:04:32.897Z,31.25
2023-02-11T01:09:34.398Z,30.55
2023-02-11T01:14:35.781Z,30.27
2023-02-11T01:19:38.045Z,30.35
2023-02-11T01:24:39.882Z,29.60
2023-02-11T01:29:41.268Z,30.65
2023-02-11T01:34:42.652Z,28.95
2023-02-11T01:39:44.282Z,29.08
2023-02-11T01:44:45.671Z,30.45
2023-02-11T01:49:57.701Z,30.00
2023-02-11T01:55:23.769Z,28.98
2023-02-11T02:00:31.320Z,30.58
2023-02-11T02:05:54.862Z,30.15
2023-02-11T02:10:58.368Z,29.88
2023-02-11T02:16:08.603Z,29.10
2023-02-11T02:21:14.239Z,30.15
2023-02-11T02:26:44.170Z,29.85
2023-02-11T02:32:16.446Z,29.45
2023-02-11T02:37:39.747Z,31.52
2023-02-11T02:42:43.188Z,28.95
2023-02-11T02:47:44.519Z,29.85
2023-02-11T02:53:24.268Z,29.58
2023-02-11T02:59:02.309Z,29.52
2023-02-11T03:04:18.320Z,29.10
2023-02-11T03:09:45.725Z,29.33
2023-02-11T03:14:50.616Z,30.23
2023-02-11T03:19:52.201Z,30.30
2023-02-11T03:24:55.936Z,29.92
2023-02-11T03:30:30.061Z,30.15
2023-02-11T03:35:50.726Z,28.92
2023-02-11T03:40:55.693Z,28.83
2023-02-11T03:45:58.817Z,28.13
2023-02-11T03:51:03.600Z,27.50
2023-02-11T03:56:09.944Z,29.92
2023-02-11T04:01:11.612Z,28.02
2023-02-11T04:06:12.960Z,28.48
2023-02-11T04:11:14.907Z,29.90
2023-02-11T04:16:16.308Z,30.15
2023-02-11T04:21:17.722Z,28.40
2023-02-11T04:26:19.162Z,26.80
2023-02-11T04:31:20.790Z,26.38
2023-02-11T04:36:22.266Z,29.52
2023-02-11T04:41:23.637Z,27.40
2023-02-11T04:46:25.056Z,28.00
2023-02-11T04:51:26.398Z,27.75
2023-02-11T04:56:27.686Z,26.92
2023-02-11T05:01:29.118Z,25.42
2023-02-11T05:06:30.613Z,27.80
2023-02-11T05:11:31.994Z,27.15
2023-02-11T05:16:33.719Z,29.25
2023-02-11T05:21:35.086Z,25.50
2023-02-11T05:26:36.403Z,26.95
2023-02-11T05:31:37.773Z,25.38
2023-02-11T05:36:39.085Z,25.17
2023-02-11T05:41:40.443Z,26.33
2023-02-11T05:46:41.869Z,24.90
2023-02-11T05:51:43.465Z,25.40
2023-02-11T05:56:45.125Z,26.92
2023-02-11T06:01:46.513Z,24.98
2023-02-11T06:06:47.928Z,24.60
2023-02-11T06:11:49.271Z,25.45
2023-02-11T06:16:50.549Z,23.85
2023-02-11T06:21:51.896Z,24.83
2023-02-11T06:26:53.263Z,25.05
2023-02-11T06:31:54.875Z,24.65
2023-02-11T06:36:56.971Z,25.20
2023-02-11T06:41:58.447Z,25.13
2023-02-11T06:46:59.751Z,24.73
2023-02-11T06:52:01.166Z,25.33
2023-02-11T06:57:02.562Z,25.42
2023-02-11T07:02:04.006Z,25.75
2023-02-11T07:07:05.493Z,24.65
2023-02-11T07:12:09.581Z,25.42
2023-02-11T07:17:10.982Z,23.83
2023-02-11T07:22:12.333Z,23.48
2023-02-11T07:27:13.698Z,23.30
2023-02-11T07:32:15.091Z,23.77
2023-02-11T07:37:16.823Z,23.05
2023-02-11T07:42:18.303Z,22.38
2023-02-11T07:47:19.627Z,22.90
2023-02-11T07:52:21.322Z,22.52
2023-02-11T07:57:22.699Z,23.60
2023-02-11T08:02:24.435Z,23.63
2023-02-11T08:07:26.057Z,22.65
2023-02-11T08:12:27.391Z,23.77
2023-02-11T08:17:28.818Z,23.17
2023-02-11T08:22:34.885Z,23.83
2023-02-11T08:27:36.246Z,23.23
2023-02-11T08:32:39.359Z,23.10
2023-02-11T08:37:40.971Z,22.10
2023-02-11T08:42:42.668Z,24.25
2023-02-11T08:47:43.993Z,22.13
2023-02-11T08:52:45.374Z,23.15
2023-02-11T08:57:46.758Z,23.95
2023-02-11T09:02:48.153Z,22.15
2023-02-11T09:07:49.476Z,22.95
2023-02-11T09:12:50.788Z,23.88
2023-02-11T09:17:52.128Z,23.73
2023-02-11T09:22:54.583Z,24.23
2023-02-11T09:27:56.061Z,22.90
2023-02-11T09:32:57.408Z,24.02
2023-02-11T09:37:58.784Z,23.73
2023-02-11T09:43:16.070Z,23.25
2023-02-11T09:48:19.988Z,24.90
2023-02-11T09:53:24.121Z,22.73
2023-02-11T09:58:33.404Z,18.30
2023-02-11T10:03:51.853Z,22.83
2023-02-11T10:09:12.094Z,24.88
2023-02-11T10:14:19.451Z,25.20
2023-02-11T10:19:30.053Z,24.75
2023-02-11T10:24:31.599Z,23.02
2023-02-11T10:29:40.564Z,22.98
2023-02-11T10:34:42.418Z,23.50
2023-02-11T10:39:43.833Z,23.80
2023-02-11T10:45:02.647Z,24.63
2023-02-11T10:50:21.457Z,21.80
2023-02-11T10:55:28.013Z,21.92
2023-02-11T11:00:38.764Z,22.55
2023-02-11T11:06:05.304Z,22.00
2023-02-11T11:11:09.456Z,22.65
2023-02-11T11:16:13.904Z,21.40
2023-02-11T11:21:22.732Z,22.33
2023-02-11T11:26:39.483Z,21.98
2023-02-11T11:31:51.959Z,24.17
2023-02-11T11:36:54.804Z,25.20
2023-02-11T11:42:03.189Z,22.30
2023-02-11T11:47:21.004Z,22.75
2023-02-11T11:53:01.174Z,22.65
2023-02-11T11:58:02.486Z,20.50
2023-02-11T12:03:24.989Z,22.05
2023-02-11T12:08:53.720Z,21.42
2023-02-11T12:14:19.532Z,21.92
2023-02-11T12:19:27.547Z,21.35
2023-02-11T12:25:06.347Z,21.65
2023-02-11T12:30:24.244Z,20.58
2023-02-11T12:35:32.511Z,21.20
2023-02-11T12:40:46.415Z,20.67
2023-02-11T12:46:30.338Z,20.42
2023-02-11T12:51:34.677Z,20.92
2023-02-11T12:57:03.359Z,21.00
2023-02-11T13:02:15.929Z,19.40
2023-02-11T13:07:33.154Z,19.00
2023-02-11T13:12:55.595Z,19.52
2023-02-11T13:18:19.178Z,19.48
2023-02-11T13:23:31.761Z,19.90
2023-02-11T13:28:46.208Z,18.85
2023-02-11T13:33:49.772Z,18.17
2023-02-11T13:38:58.678Z,18.67
2023-02-11T13:44:27.557Z,18.85
2023-02-11T13:49:36.979Z,17.90
2023-02-11T13:54:39.573Z,18.38
2023-02-11T13:59:47.624Z,16.83
2023-02-11T14:05:23.104Z,18.33
2023-02-11T14:10:42.760Z,16.52
2023-02-11T14:15:46.391Z,14.85
2023-02-11T14:20:48.048Z,16.35
2023-02-11T14:26:04.594Z,15.52
2023-02-11T14:31:29.616Z,17.40
2023-02-11T14:41:40.723Z,15.45
2023-02-11T14:46:47.420Z,14.73
2023-02-11T14:51:49.040Z,16.35
2023-02-11T14:57:17.192Z,15.07
2023-02-11T15:02:24.335Z,15.73
2023-02-11T15:07:26.740Z,15.55
2023-02-11T15:12:28.515Z,15.90
2023-02-11T15:17:31.957Z,15.43
2023-02-11T15:22:36.795Z,14.65
2023-02-11T15:32:44.830Z,14.63
2023-02-11T15:37:47.767Z,14.95
2023-02-11T15:43:05.802Z,13.67
2023-02-11T15:48:13.116Z,13.52
2023-02-11T15:53:25.707Z,12.38
2023-02-11T15:58:27.299Z,12.90
2023-02-11T16:03:32.673Z,12.70
2023-02-11T16:08:35.395Z,12.88
2023-02-11T16:13:47.349Z,11.63
2023-02-11T16:19:03.153Z,11.35
2023-02-11T16:24:07.883Z,12.30
2023-02-11T16:29:18.361Z,12.60
2023-02-11T16:34:22.160Z,12.77
2023-02-11T16:39:23.564Z,10.98
2023-02-11T16:44:25.093Z,12.50
2023-02-11T16:49:29.776Z,12.70
2023-02-11T16:54:31.262Z,12.98
2023-02-11T16:59:32.690Z,14.10
2023-02-11T17:04:34.448Z,13.80
2023-02-11T17:09:35.848Z,13.93
2023-02-11T17:14:37.291Z,15.63
2023-02-11T17:19:39.104Z,14.48
2023-02-11T17:24:40.486Z,14.73
2023-02-11T17:29:41.832Z,15.75
2023-02-11T17:34:43.252Z,17.13
2023-02-11T17:39:44.827Z,17.45
2023-02-11T17:44:46.813Z,18.48
2023-02-11T17:49:48.190Z,17.08
2023-02-11T17:54:50.013Z,19.27
2023-02-11T17:59:51.537Z,18.00
2023-02-11T18:04:53.313Z,17.35
2023-02-11T18:09:54.755Z,18.02
2023-02-11T18:14:58.048Z,17.75
2023-02-11T18:19:59.845Z,18.42
2023-02-11T18:25:01.159Z,20.02
2023-02-11T18:30:02.843Z,20.00
2023-02-11T18:35:04.453Z,21.35
2023-02-11T18:40:06.521Z,21.63
2023-02-11T18:45:11.492Z,20.90
2023-02-11T18:50:15.438Z,20.48
2023-02-11T18:55:16.862Z,21.17
2023-02-11T19:00:19.521Z,18.33
2023-02-11T19:05:21.573Z,20.42
2023-02-11T19:10:23.512Z,21.33
2023-02-11T19:15:26.182Z,22.23
2023-02-11T19:20:27.656Z,19.80
2023-02-11T19:25:29.238Z,20.35
2023-02-11T19:30:30.766Z,20.42
2023-02-11T19:35:37.952Z,19.02
2023-02-11T19:40:39.632Z,19.73
2023-02-11T19:45:40.942Z,19.05
2023-02-11T19:50:42.348Z,19.67
2023-02-11T19:55:43.899Z,18.65
2023-02-11T20:00:45.234Z,17.70
2023-02-11T20:05:48.326Z,19.00
2023-02-11T20:10:49.672Z,19.17
2023-02-11T20:15:51.462Z,20.70
2023-02-11T20:20:53.085Z,20.70
2023-02-11T20:25:54.620Z,19.08
2023-02-11T20:30:59.891Z,18.08
2023-02-11T20:41:18.083Z,19.25
2023-02-11T20:46:23.692Z,17.48
2023-02-11T20:51:31.813Z,18.02
2023-02-11T20:56:36.787Z,18.40
2023-02-11T21:01:40.979Z,19.17
2023-02-11T21:06:45.783Z,18.80
2023-02-11T21:11:48.611Z,20.70
2023-02-11T21:16:50.730Z,20.67
2023-02-11T21:21:52.778Z,19.48
2023-02-11T21:26:54.662Z,21.67
2023-02-11T21:31:56.134Z,19.65
2023-02-11T21:36:58.673Z,19.98
2023-02-11T21:42:00.195Z,20.20
2023-02-11T21:47:01.604Z,19.05
2023-02-11T21:52:03.060Z,18.65
2023-02-11T21:57:04.618Z,20.08
2023-02-11T22:02:06.011Z,18.90
2023-02-11T22:07:07.416Z,18.95
2023-02-11T22:12:08.880Z,18.70
2023-02-11T22:17:10.273Z,18.90
2023-02-11T22:22:13.404Z,18.27
2023-02-11T22:27:18.460Z,19.10
2023-02-11T22:32:21.580Z,20.17
2023-02-11T22:37:22.993Z,19.30
2023-02-11T22:42:24.294Z,19.20
2023-02-11T22:47:27.477Z,20.15
2023-02-11T22:52:29.376Z,21.23
2023-02-11T22:57:30.754Z,20.58
2023-02-11T23:02:32.540Z,21.80
2023-02-11T23:07:33.905Z,21.55
2023-02-11T23:12:35.352Z,23.33
2023-02-11T23:17:36.683Z,19.88
2023-02-11T23:22:38.023Z,20.40
2023-02-11T23:27:39.310Z,19.00
2023-02-11T23:32:40.769Z,18.20
2023-02-11T23:37:42.068Z,18.17
2023-02-11T23:42:43.995Z,19.40
2023-02-11T23:47:45.777Z,19.48
2023-02-11T23:52:49.019Z,19.45
2023-02-11T23:57:50.393Z,18.40
